sensor_id;sensor_type;location;lat;lon;timestamp;temperature;humidity
74540;SHT31;66042;51.090;-115.340;2024-02-23T00:02:20;15.09;23.75
74540;SHT31;66042;51.090;-115.340;2024-02-23T00:04:47;14.76;23.42
74540;SHT31;66042;51.090;-115.340;2024-02-23T00:07:14;14.33;23.47
74540;SHT31;66042;51.090;-115.340;2024-02-23T00:09:42;13.88;24.05
74540;SHT31;66042;51.090;-115.340;2024-02-23T00:12:09;13.53;24.63
74540;SHT31;66042;51.090;-115.340;2024-02-23T00:14:36;13.24;25.17
74540;SHT31;66042;51.090;-115.340;2024-02-23T00:17:03;12.97;25.41
74540;SHT31;66042;51.090;-115.340;2024-02-23T00:19:31;12.61;25.70
74540;SHT31;66042;51.090;-115.340;2024-02-23T00:21:58;12.33;26.04
74540;SHT31;66042;51.090;-115.340;2024-02-23T00:24:25;12.14;26.01
74540;SHT31;66042;51.090;-115.340;2024-02-23T00:26:52;11.90;26.41
74540;SHT31;66042;51.090;-115.340;2024-02-23T00:29:20;11.68;26.56
74540;SHT31;66042;51.090;-115.340;2024-02-23T00:31:47;11.41;26.79
74540;SHT31;66042;51.090;-115.340;2024-02-23T00:34:14;11.16;27.18
74540;SHT31;66042;51.090;-115.340;2024-02-23T00:36:42;10.99;27.24
74540;SHT31;66042;51.090;-115.340;2024-02-23T00:39:10;10.85;27.48
74540;SHT31;66042;51.090;-115.340;2024-02-23T00:41:36;10.68;27.64
74540;SHT31;66042;51.090;-115.340;2024-02-23T00:44:04;10.51;27.85
74540;SHT31;66042;51.090;-115.340;2024-02-23T00:46:31;10.34;28.24
74540;SHT31;66042;51.090;-115.340;2024-02-23T00:48:58;10.15;28.16
74540;SHT31;66042;51.090;-115.340;2024-02-23T00:51:25;9.97;28.47
74540;SHT31;66042;51.090;-115.340;2024-02-23T00:53:52;9.84;28.67
74540;SHT31;66042;51.090;-115.340;2024-02-23T00:56:19;9.63;29.29
74540;SHT31;66042;51.090;-115.340;2024-02-23T00:58:46;9.44;29.54
74540;SHT31;66042;51.090;-115.340;2024-02-23T01:01:14;9.25;29.93
74540;SHT31;66042;51.090;-115.340;2024-02-23T01:03:41;9.11;29.95
74540;SHT31;66042;51.090;-115.340;2024-02-23T01:06:08;8.92;30.26
74540;SHT31;66042;51.090;-115.340;2024-02-23T01:08:35;8.77;30.69
74540;SHT31;66042;51.090;-115.340;2024-02-23T01:11:02;8.60;31.25
74540;SHT31;66042;51.090;-115.340;2024-02-23T01:13:29;8.46;31.17
74540;SHT31;66042;51.090;-115.340;2024-02-23T01:15:56;8.33;31.61
74540;SHT31;66042;51.090;-115.340;2024-02-23T01:18:24;8.18;32.19
74540;SHT31;66042;51.090;-115.340;2024-02-23T01:20:51;7.95;32.58
74540;SHT31;66042;51.090;-115.340;2024-02-23T01:23:19;7.85;32.46
74540;SHT31;66042;51.090;-115.340;2024-02-23T01:25:45;7.76;32.44
74540;SHT31;66042;51.090;-115.340;2024-02-23T01:28:12;7.65;33.23
74540;SHT31;66042;51.090;-115.340;2024-02-23T01:30:39;7.52;33.20
74540;SHT31;66042;51.090;-115.340;2024-02-23T01:33:06;7.40;33.38
74540;SHT31;66042;51.090;-115.340;2024-02-23T01:35:33;7.30;33.89
74540;SHT31;66042;51.090;-115.340;2024-02-23T01:38:02;7.16;34.05
74540;SHT31;66042;51.090;-115.340;2024-02-23T01:40:29;7.00;34.45
74540;SHT31;66042;51.090;-115.340;2024-02-23T01:43:02;6.84;34.76
74540;SHT31;66042;51.090;-115.340;2024-02-23T01:45:31;6.82;34.87
74540;SHT31;66042;51.090;-115.340;2024-02-23T01:47:58;6.78;35.24
74540;SHT31;66042;51.090;-115.340;2024-02-23T01:50:28;6.69;35.70
74540;SHT31;66042;51.090;-115.340;2024-02-23T01:52:58;6.61;35.29
74540;SHT31;66042;51.090;-115.340;2024-02-23T01:55:28;6.56;35.29
74540;SHT31;66042;51.090;-115.340;2024-02-23T01:57:57;6.51;35.61
74540;SHT31;66042;51.090;-115.340;2024-02-23T02:00:25;6.46;35.74
74540;SHT31;66042;51.090;-115.340;2024-02-23T02:02:52;6.42;36.32
74540;SHT31;66042;51.090;-115.340;2024-02-23T02:05:19;6.37;36.72
74540;SHT31;66042;51.090;-115.340;2024-02-23T02:07:47;6.27;36.53
74540;SHT31;66042;51.090;-115.340;2024-02-23T02:10:19;6.14;36.62
74540;SHT31;66042;51.090;-115.340;2024-02-23T02:12:47;6.08;37.09
74540;SHT31;66042;51.090;-115.340;2024-02-23T02:15:14;5.98;37.19
74540;SHT31;66042;51.090;-115.340;2024-02-23T02:17:41;5.91;37.87
74540;SHT31;66042;51.090;-115.340;2024-02-23T02:20:12;5.84;38.11
74540;SHT31;66042;51.090;-115.340;2024-02-23T02:22:39;5.76;38.25
74540;SHT31;66042;51.090;-115.340;2024-02-23T02:25:07;5.65;38.59
74540;SHT31;66042;51.090;-115.340;2024-02-23T02:27:37;5.56;39.15
74540;SHT31;66042;51.090;-115.340;2024-02-23T02:30:27;5.52;39.11
74540;SHT31;66042;51.090;-115.340;2024-02-23T02:33:08;5.47;39.58
74540;SHT31;66042;51.090;-115.340;2024-02-23T02:35:52;5.42;39.61
74540;SHT31;66042;51.090;-115.340;2024-02-23T02:38:24;5.34;39.12
74540;SHT31;66042;51.090;-115.340;2024-02-23T02:41:07;5.24;39.24
74540;SHT31;66042;51.090;-115.340;2024-02-23T02:43:57;5.15;39.59
74540;SHT31;66042;51.090;-115.340;2024-02-23T02:46:24;5.09;39.91
74540;SHT31;66042;51.090;-115.340;2024-02-23T02:48:51;5.02;40.14
74540;SHT31;66042;51.090;-115.340;2024-02-23T02:51:35;4.97;40.10
74540;SHT31;66042;51.090;-115.340;2024-02-23T02:54:15;4.90;40.54
74540;SHT31;66042;51.090;-115.340;2024-02-23T02:56:43;4.85;40.92
74540;SHT31;66042;51.090;-115.340;2024-02-23T02:59:34;4.76;41.35
74540;SHT31;66042;51.090;-115.340;2024-02-23T03:02:03;4.70;41.48
74540;SHT31;66042;51.090;-115.340;2024-02-23T03:04:31;4.64;41.42
74540;SHT31;66042;51.090;-115.340;2024-02-23T03:06:58;4.57;41.43
74540;SHT31;66042;51.090;-115.340;2024-02-23T03:09:50;4.52;41.84
74540;SHT31;66042;51.090;-115.340;2024-02-23T03:12:38;4.43;42.14
74540;SHT31;66042;51.090;-115.340;2024-02-23T03:15:05;4.36;42.35
74540;SHT31;66042;51.090;-115.340;2024-02-23T03:17:32;4.30;42.33
74540;SHT31;66042;51.090;-115.340;2024-02-23T03:19:59;4.25;42.26
74540;SHT31;66042;51.090;-115.340;2024-02-23T03:22:37;4.18;42.35
74540;SHT31;66042;51.090;-115.340;2024-02-23T03:25:21;4.11;42.48
74540;SHT31;66042;51.090;-115.340;2024-02-23T03:27:48;4.05;42.75
74540;SHT31;66042;51.090;-115.340;2024-02-23T03:30:23;4.01;43.06
74540;SHT31;66042;51.090;-115.340;2024-02-23T03:32:51;3.96;43.10
74540;SHT31;66042;51.090;-115.340;2024-02-23T03:38:28;3.84;43.45
74540;SHT31;66042;51.090;-115.340;2024-02-23T03:40:55;3.81;43.34
74540;SHT31;66042;51.090;-115.340;2024-02-23T03:43:23;3.79;43.52
74540;SHT31;66042;51.090;-115.340;2024-02-23T03:46:13;3.75;43.48
74540;SHT31;66042;51.090;-115.340;2024-02-23T03:48:41;3.72;43.39
74540;SHT31;66042;51.090;-115.340;2024-02-23T03:51:09;3.67;43.58
74540;SHT31;66042;51.090;-115.340;2024-02-23T03:53:35;3.65;43.63
74540;SHT31;66042;51.090;-115.340;2024-02-23T03:56:03;3.63;43.69
74540;SHT31;66042;51.090;-115.340;2024-02-23T03:58:30;3.58;43.70
74540;SHT31;66042;51.090;-115.340;2024-02-23T04:00:57;3.54;43.86
74540;SHT31;66042;51.090;-115.340;2024-02-23T04:03:26;3.51;43.93
74540;SHT31;66042;51.090;-115.340;2024-02-23T04:06:13;3.45;43.77
74540;SHT31;66042;51.090;-115.340;2024-02-23T04:08:40;3.41;43.86
74540;SHT31;66042;51.090;-115.340;2024-02-23T04:11:07;3.36;44.28
74540;SHT31;66042;51.090;-115.340;2024-02-23T04:13:34;3.32;44.13
74540;SHT31;66042;51.090;-115.340;2024-02-23T04:16:01;3.31;44.26
74540;SHT31;66042;51.090;-115.340;2024-02-23T04:18:28;3.30;44.42
74540;SHT31;66042;51.090;-115.340;2024-02-23T04:20:56;3.30;44.60
74540;SHT31;66042;51.090;-115.340;2024-02-23T04:23:23;3.31;44.54
74540;SHT31;66042;51.090;-115.340;2024-02-23T04:25:53;3.30;44.72
74540;SHT31;66042;51.090;-115.340;2024-02-23T04:28:20;3.27;44.98
74540;SHT31;66042;51.090;-115.340;2024-02-23T04:30:47;3.23;44.93
74540;SHT31;66042;51.090;-115.340;2024-02-23T04:33:14;3.22;44.93
74540;SHT31;66042;51.090;-115.340;2024-02-23T04:35:42;3.23;44.96
74540;SHT31;66042;51.090;-115.340;2024-02-23T04:38:09;3.24;44.95
74540;SHT31;66042;51.090;-115.340;2024-02-23T04:40:36;3.24;44.89
74540;SHT31;66042;51.090;-115.340;2024-02-23T04:43:04;3.22;44.82
74540;SHT31;66042;51.090;-115.340;2024-02-23T04:45:30;3.19;44.57
74540;SHT31;66042;51.090;-115.340;2024-02-23T04:47:57;3.17;44.35
74540;SHT31;66042;51.090;-115.340;2024-02-23T04:50:24;3.14;44.53
74540;SHT31;66042;51.090;-115.340;2024-02-23T04:52:51;3.10;44.60
74540;SHT31;66042;51.090;-115.340;2024-02-23T04:55:18;3.06;44.53
74540;SHT31;66042;51.090;-115.340;2024-02-23T04:57:45;3.00;44.63
74540;SHT31;66042;51.090;-115.340;2024-02-23T05:00:12;2.94;44.66
74540;SHT31;66042;51.090;-115.340;2024-02-23T05:02:40;2.91;44.74
74540;SHT31;66042;51.090;-115.340;2024-02-23T05:05:07;2.88;44.75
74540;SHT31;66042;51.090;-115.340;2024-02-23T05:07:34;2.90;44.77
74540;SHT31;66042;51.090;-115.340;2024-02-23T05:10:01;2.92;44.86
74540;SHT31;66042;51.090;-115.340;2024-02-23T05:12:29;2.91;44.98
74540;SHT31;66042;51.090;-115.340;2024-02-23T05:14:56;2.92;45.27
74540;SHT31;66042;51.090;-115.340;2024-02-23T05:17:23;2.91;45.13
74540;SHT31;66042;51.090;-115.340;2024-02-23T05:19:50;2.86;45.29
74540;SHT31;66042;51.090;-115.340;2024-02-23T05:22:17;2.79;45.46
74540;SHT31;66042;51.090;-115.340;2024-02-23T05:24:45;2.75;45.42
74540;SHT31;66042;51.090;-115.340;2024-02-23T05:27:12;2.74;45.33
74540;SHT31;66042;51.090;-115.340;2024-02-23T05:29:39;2.73;45.27
74540;SHT31;66042;51.090;-115.340;2024-02-23T05:32:06;2.67;45.41
74540;SHT31;66042;51.090;-115.340;2024-02-23T05:34:33;2.58;45.69
74540;SHT31;66042;51.090;-115.340;2024-02-23T05:37:01;2.52;45.82
74540;SHT31;66042;51.090;-115.340;2024-02-23T05:39:28;2.51;46.06
74540;SHT31;66042;51.090;-115.340;2024-02-23T05:41:55;2.51;46.03
74540;SHT31;66042;51.090;-115.340;2024-02-23T05:44:24;2.51;46.24
74540;SHT31;66042;51.090;-115.340;2024-02-23T05:46:54;2.47;46.29
74540;SHT31;66042;51.090;-115.340;2024-02-23T05:49:20;2.48;46.33
74540;SHT31;66042;51.090;-115.340;2024-02-23T05:51:48;2.46;46.55
74540;SHT31;66042;51.090;-115.340;2024-02-23T05:54:15;2.48;46.69
74540;SHT31;66042;51.090;-115.340;2024-02-23T05:56:43;2.49;46.80
74540;SHT31;66042;51.090;-115.340;2024-02-23T05:59:11;2.49;46.55
74540;SHT31;66042;51.090;-115.340;2024-02-23T06:01:38;2.47;46.29
74540;SHT31;66042;51.090;-115.340;2024-02-23T06:04:05;2.43;46.45
74540;SHT31;66042;51.090;-115.340;2024-02-23T06:06:32;2.43;46.74
74540;SHT31;66042;51.090;-115.340;2024-02-23T06:08:59;2.42;46.78
74540;SHT31;66042;51.090;-115.340;2024-02-23T06:11:28;2.39;46.94
74540;SHT31;66042;51.090;-115.340;2024-02-23T06:13:55;2.38;47.12
74540;SHT31;66042;51.090;-115.340;2024-02-23T06:16:22;2.38;47.04
74540;SHT31;66042;51.090;-115.340;2024-02-23T06:18:49;2.33;47.09
74540;SHT31;66042;51.090;-115.340;2024-02-23T06:21:16;2.31;47.20
74540;SHT31;66042;51.090;-115.340;2024-02-23T06:23:44;2.31;47.35
74540;SHT31;66042;51.090;-115.340;2024-02-23T06:26:11;2.28;47.37
74540;SHT31;66042;51.090;-115.340;2024-02-23T06:28:38;2.26;47.39
74540;SHT31;66042;51.090;-115.340;2024-02-23T06:31:09;2.24;47.41
74540;SHT31;66042;51.090;-115.340;2024-02-23T06:33:36;2.20;47.44
74540;SHT31;66042;51.090;-115.340;2024-02-23T06:36:04;2.16;47.55
74540;SHT31;66042;51.090;-115.340;2024-02-23T06:38:31;2.11;47.58
74540;SHT31;66042;51.090;-115.340;2024-02-23T06:40:59;2.08;47.72
74540;SHT31;66042;51.090;-115.340;2024-02-23T06:43:26;2.07;47.82
74540;SHT31;66042;51.090;-115.340;2024-02-23T06:45:53;2.05;47.78
74540;SHT31;66042;51.090;-115.340;2024-02-23T06:48:20;2.03;47.80
74540;SHT31;66042;51.090;-115.340;2024-02-23T06:50:49;2.02;47.90
74540;SHT31;66042;51.090;-115.340;2024-02-23T06:53:16;2.03;47.97
74540;SHT31;66042;51.090;-115.340;2024-02-23T06:55:43;2.01;48.17
74540;SHT31;66042;51.090;-115.340;2024-02-23T06:58:10;1.98;48.18
74540;SHT31;66042;51.090;-115.340;2024-02-23T07:00:39;1.95;48.09
74540;SHT31;66042;51.090;-115.340;2024-02-23T07:03:07;1.92;48.25
74540;SHT31;66042;51.090;-115.340;2024-02-23T07:05:34;1.90;48.39
74540;SHT31;66042;51.090;-115.340;2024-02-23T07:08:01;1.87;48.38
74540;SHT31;66042;51.090;-115.340;2024-02-23T07:10:28;1.85;48.43
74540;SHT31;66042;51.090;-115.340;2024-02-23T07:12:55;1.82;48.38
74540;SHT31;66042;51.090;-115.340;2024-02-23T07:15:23;1.79;48.55
74540;SHT31;66042;51.090;-115.340;2024-02-23T07:17:51;1.77;48.59
74540;SHT31;66042;51.090;-115.340;2024-02-23T07:20:18;1.73;48.68
74540;SHT31;66042;51.090;-115.340;2024-02-23T07:22:46;1.69;48.84
74540;SHT31;66042;51.090;-115.340;2024-02-23T07:25:16;1.68;48.97
74540;SHT31;66042;51.090;-115.340;2024-02-23T07:27:47;1.66;49.11
74540;SHT31;66042;51.090;-115.340;2024-02-23T07:30:15;1.63;49.12
74540;SHT31;66042;51.090;-115.340;2024-02-23T07:32:43;1.61;49.18
74540;SHT31;66042;51.090;-115.340;2024-02-23T07:35:12;1.57;49.22
74540;SHT31;66042;51.090;-115.340;2024-02-23T07:37:39;1.54;49.27
74540;SHT31;66042;51.090;-115.340;2024-02-23T07:40:06;1.51;49.30
74540;SHT31;66042;51.090;-115.340;2024-02-23T07:42:34;1.49;49.39
74540;SHT31;66042;51.090;-115.340;2024-02-23T07:45:04;1.45;49.47
74540;SHT31;66042;51.090;-115.340;2024-02-23T07:47:33;1.40;49.80
74540;SHT31;66042;51.090;-115.340;2024-02-23T07:50:00;1.39;49.86
74540;SHT31;66042;51.090;-115.340;2024-02-23T07:52:27;1.38;49.92
74540;SHT31;66042;51.090;-115.340;2024-02-23T07:54:55;1.37;50.02
74540;SHT31;66042;51.090;-115.340;2024-02-23T07:57:22;1.35;50.10
74540;SHT31;66042;51.090;-115.340;2024-02-23T07:59:49;1.33;50.19
74540;SHT31;66042;51.090;-115.340;2024-02-23T08:02:17;1.31;50.20
74540;SHT31;66042;51.090;-115.340;2024-02-23T08:04:47;1.29;50.15
74540;SHT31;66042;51.090;-115.340;2024-02-23T08:07:16;1.27;50.19
74540;SHT31;66042;51.090;-115.340;2024-02-23T08:09:43;1.25;50.20
74540;SHT31;66042;51.090;-115.340;2024-02-23T08:12:10;1.24;50.25
74540;SHT31;66042;51.090;-115.340;2024-02-23T08:14:39;1.22;50.27
74540;SHT31;66042;51.090;-115.340;2024-02-23T08:17:07;1.20;50.29
74540;SHT31;66042;51.090;-115.340;2024-02-23T08:19:36;1.17;50.28
74540;SHT31;66042;51.090;-115.340;2024-02-23T08:22:03;1.11;50.53
74540;SHT31;66042;51.090;-115.340;2024-02-23T08:24:31;1.10;50.60
74540;SHT31;66042;51.090;-115.340;2024-02-23T08:26:58;1.10;50.57
74540;SHT31;66042;51.090;-115.340;2024-02-23T08:29:25;1.09;50.37
74540;SHT31;66042;51.090;-115.340;2024-02-23T08:31:53;1.08;50.42
74540;SHT31;66042;51.090;-115.340;2024-02-23T08:34:20;1.07;50.65
74540;SHT31;66042;51.090;-115.340;2024-02-23T08:36:47;1.04;50.67
74540;SHT31;66042;51.090;-115.340;2024-02-23T08:39:14;1.03;50.69
74540;SHT31;66042;51.090;-115.340;2024-02-23T08:41:41;1.03;50.60
74540;SHT31;66042;51.090;-115.340;2024-02-23T08:44:08;1.03;50.54
74540;SHT31;66042;51.090;-115.340;2024-02-23T08:46:35;1.02;50.68
74540;SHT31;66042;51.090;-115.340;2024-02-23T08:49:05;1.02;50.77
74540;SHT31;66042;51.090;-115.340;2024-02-23T08:51:32;0.99;50.84
74540;SHT31;66042;51.090;-115.340;2024-02-23T08:53:59;0.93;50.98
74540;SHT31;66042;51.090;-115.340;2024-02-23T08:56:31;0.83;50.96
74540;SHT31;66042;51.090;-115.340;2024-02-23T08:59:02;0.80;51.09
74540;SHT31;66042;51.090;-115.340;2024-02-23T09:01:29;0.76;51.17
74540;SHT31;66042;51.090;-115.340;2024-02-23T09:03:56;0.73;51.23
74540;SHT31;66042;51.090;-115.340;2024-02-23T09:06:23;0.73;51.19
74540;SHT31;66042;51.090;-115.340;2024-02-23T09:08:51;0.75;51.22
74540;SHT31;66042;51.090;-115.340;2024-02-23T09:11:22;0.76;51.29
74540;SHT31;66042;51.090;-115.340;2024-02-23T09:13:49;0.75;51.33
74540;SHT31;66042;51.090;-115.340;2024-02-23T09:16:16;0.75;51.42
74540;SHT31;66042;51.090;-115.340;2024-02-23T09:18:44;0.76;51.32
74540;SHT31;66042;51.090;-115.340;2024-02-23T09:21:11;0.78;51.10
74540;SHT31;66042;51.090;-115.340;2024-02-23T09:23:38;0.78;51.03
74540;SHT31;66042;51.090;-115.340;2024-02-23T09:26:09;0.79;51.00
74540;SHT31;66042;51.090;-115.340;2024-02-23T09:28:37;0.78;51.00
74540;SHT31;66042;51.090;-115.340;2024-02-23T09:31:07;0.77;51.00
74540;SHT31;66042;51.090;-115.340;2024-02-23T09:33:34;0.76;51.04
74540;SHT31;66042;51.090;-115.340;2024-02-23T09:36:01;0.77;51.05
74540;SHT31;66042;51.090;-115.340;2024-02-23T09:38:29;0.75;51.20
74540;SHT31;66042;51.090;-115.340;2024-02-23T09:40:58;0.72;51.19
74540;SHT31;66042;51.090;-115.340;2024-02-23T09:43:27;0.70;51.25
74540;SHT31;66042;51.090;-115.340;2024-02-23T09:45:57;0.69;51.55
74540;SHT31;66042;51.090;-115.340;2024-02-23T09:48:25;0.68;51.57
74540;SHT31;66042;51.090;-115.340;2024-02-23T09:50:52;0.68;51.59
74540;SHT31;66042;51.090;-115.340;2024-02-23T09:53:23;0.67;51.65
74540;SHT31;66042;51.090;-115.340;2024-02-23T09:55:50;0.67;51.59
74540;SHT31;66042;51.090;-115.340;2024-02-23T09:58:21;0.65;51.66
74540;SHT31;66042;51.090;-115.340;2024-02-23T10:00:49;0.62;52.07
74540;SHT31;66042;51.090;-115.340;2024-02-23T10:03:16;0.60;52.04
74540;SHT31;66042;51.090;-115.340;2024-02-23T10:05:44;0.59;51.83
74540;SHT31;66042;51.090;-115.340;2024-02-23T10:08:11;0.58;51.67
74540;SHT31;66042;51.090;-115.340;2024-02-23T10:10:38;0.59;51.80
74540;SHT31;66042;51.090;-115.340;2024-02-23T10:13:06;0.58;51.88
74540;SHT31;66042;51.090;-115.340;2024-02-23T10:15:33;0.58;51.84
74540;SHT31;66042;51.090;-115.340;2024-02-23T10:18:00;0.55;51.81
74540;SHT31;66042;51.090;-115.340;2024-02-23T10:20:28;0.52;51.86
74540;SHT31;66042;51.090;-115.340;2024-02-23T10:22:56;0.51;52.11
74540;SHT31;66042;51.090;-115.340;2024-02-23T10:25:23;0.49;51.97
74540;SHT31;66042;51.090;-115.340;2024-02-23T10:27:50;0.48;52.01
74540;SHT31;66042;51.090;-115.340;2024-02-23T10:30:17;0.46;52.11
74540;SHT31;66042;51.090;-115.340;2024-02-23T10:32:45;0.44;52.15
74540;SHT31;66042;51.090;-115.340;2024-02-23T10:35:15;0.42;52.03
74540;SHT31;66042;51.090;-115.340;2024-02-23T10:37:43;0.41;52.03
74540;SHT31;66042;51.090;-115.340;2024-02-23T10:40:13;0.38;52.26
74540;SHT31;66042;51.090;-115.340;2024-02-23T10:42:46;0.34;52.30
74540;SHT31;66042;51.090;-115.340;2024-02-23T10:45:19;0.31;52.28
74540;SHT31;66042;51.090;-115.340;2024-02-23T10:47:47;0.31;52.16
74540;SHT31;66042;51.090;-115.340;2024-02-23T10:50:16;0.31;52.12
74540;SHT31;66042;51.090;-115.340;2024-02-23T10:52:45;0.31;52.36
74540;SHT31;66042;51.090;-115.340;2024-02-23T10:55:14;0.30;52.37
74540;SHT31;66042;51.090;-115.340;2024-02-23T10:57:42;0.29;52.35
74540;SHT31;66042;51.090;-115.340;2024-02-23T11:00:11;0.30;52.46
74540;SHT31;66042;51.090;-115.340;2024-02-23T11:02:45;0.28;52.48
74540;SHT31;66042;51.090;-115.340;2024-02-23T11:05:19;0.18;52.77
74540;SHT31;66042;51.090;-115.340;2024-02-23T11:07:46;0.06;53.01
74540;SHT31;66042;51.090;-115.340;2024-02-23T11:10:14;0.00;53.02
74540;SHT31;66042;51.090;-115.340;2024-02-23T11:12:43;-0.04;53.27
74540;SHT31;66042;51.090;-115.340;2024-02-23T11:15:16;-0.10;53.50
74540;SHT31;66042;51.090;-115.340;2024-02-23T11:17:53;-0.13;53.43
74540;SHT31;66042;51.090;-115.340;2024-02-23T11:20:21;-0.17;53.61
74540;SHT31;66042;51.090;-115.340;2024-02-23T11:22:51;-0.20;53.94
74540;SHT31;66042;51.090;-115.340;2024-02-23T11:25:19;-0.20;53.91
74540;SHT31;66042;51.090;-115.340;2024-02-23T11:27:52;-0.19;53.43
74540;SHT31;66042;51.090;-115.340;2024-02-23T11:30:19;-0.14;53.44
74540;SHT31;66042;51.090;-115.340;2024-02-23T11:32:47;-0.16;53.78
74540;SHT31;66042;51.090;-115.340;2024-02-23T11:35:15;-0.19;53.75
74540;SHT31;66042;51.090;-115.340;2024-02-23T11:40:32;-0.22;53.69
74540;SHT31;66042;51.090;-115.340;2024-02-23T11:43:00;-0.19;53.45
74540;SHT31;66042;51.090;-115.340;2024-02-23T11:45:28;-0.19;53.73
74540;SHT31;66042;51.090;-115.340;2024-02-23T11:47:56;-0.17;53.62
74540;SHT31;66042;51.090;-115.340;2024-02-23T11:50:24;-0.16;53.46
74540;SHT31;66042;51.090;-115.340;2024-02-23T11:52:51;-0.12;53.51
74540;SHT31;66042;51.090;-115.340;2024-02-23T11:55:19;-0.11;53.59
74540;SHT31;66042;51.090;-115.340;2024-02-23T11:57:49;-0.15;53.65
74540;SHT31;66042;51.090;-115.340;2024-02-23T12:00:17;-0.17;53.50
74540;SHT31;66042;51.090;-115.340;2024-02-23T12:02:45;-0.18;53.41
74540;SHT31;66042;51.090;-115.340;2024-02-23T12:05:16;-0.16;53.22
74540;SHT31;66042;51.090;-115.340;2024-02-23T12:07:43;-0.13;53.05
74540;SHT31;66042;51.090;-115.340;2024-02-23T12:10:10;-0.10;53.15
74540;SHT31;66042;51.090;-115.340;2024-02-23T12:12:39;-0.11;53.32
74540;SHT31;66042;51.090;-115.340;2024-02-23T12:15:06;-0.11;53.34
74540;SHT31;66042;51.090;-115.340;2024-02-23T12:17:37;-0.14;53.39
74540;SHT31;66042;51.090;-115.340;2024-02-23T12:20:13;-0.18;53.42
74540;SHT31;66042;51.090;-115.340;2024-02-23T12:22:43;-0.20;53.41
74540;SHT31;66042;51.090;-115.340;2024-02-23T12:25:11;-0.18;53.22
74540;SHT31;66042;51.090;-115.340;2024-02-23T12:27:39;-0.14;53.28
74540;SHT31;66042;51.090;-115.340;2024-02-23T12:30:06;-0.12;53.44
74540;SHT31;66042;51.090;-115.340;2024-02-23T12:32:42;-0.16;53.67
74540;SHT31;66042;51.090;-115.340;2024-02-23T12:35:10;-0.19;53.58
74540;SHT31;66042;51.090;-115.340;2024-02-23T12:37:37;-0.20;53.45
74540;SHT31;66042;51.090;-115.340;2024-02-23T12:40:06;-0.17;53.20
74540;SHT31;66042;51.090;-115.340;2024-02-23T12:42:34;-0.12;53.15
74540;SHT31;66042;51.090;-115.340;2024-02-23T12:45:01;-0.10;52.96
74540;SHT31;66042;51.090;-115.340;2024-02-23T12:47:29;-0.06;52.93
74540;SHT31;66042;51.090;-115.340;2024-02-23T12:49:55;-0.05;52.70
74540;SHT31;66042;51.090;-115.340;2024-02-23T12:52:23;-0.02;52.70
74540;SHT31;66042;51.090;-115.340;2024-02-23T12:54:50;-0.00;52.70
74540;SHT31;66042;51.090;-115.340;2024-02-23T12:57:17;0.00;52.60
74540;SHT31;66042;51.090;-115.340;2024-02-23T12:59:44;0.03;52.44
74540;SHT31;66042;51.090;-115.340;2024-02-23T13:02:11;0.05;52.33
74540;SHT31;66042;51.090;-115.340;2024-02-23T13:04:38;0.05;52.47
74540;SHT31;66042;51.090;-115.340;2024-02-23T13:07:06;0.01;52.54
74540;SHT31;66042;51.090;-115.340;2024-02-23T13:09:33;-0.00;52.58
74540;SHT31;66042;51.090;-115.340;2024-02-23T13:12:00;-0.02;52.52
74540;SHT31;66042;51.090;-115.340;2024-02-23T13:14:28;-0.00;52.27
74540;SHT31;66042;51.090;-115.340;2024-02-23T13:16:55;0.02;52.21
74540;SHT31;66042;51.090;-115.340;2024-02-23T13:19:22;0.04;52.20
74540;SHT31;66042;51.090;-115.340;2024-02-23T13:21:49;0.04;52.42
74540;SHT31;66042;51.090;-115.340;2024-02-23T13:24:16;-0.02;52.53
74540;SHT31;66042;51.090;-115.340;2024-02-23T13:26:43;-0.06;52.54
74540;SHT31;66042;51.090;-115.340;2024-02-23T13:29:10;-0.05;52.38
74540;SHT31;66042;51.090;-115.340;2024-02-23T13:31:37;-0.05;52.31
74540;SHT31;66042;51.090;-115.340;2024-02-23T13:34:05;-0.02;52.10
74540;SHT31;66042;51.090;-115.340;2024-02-23T13:36:32;-0.00;52.16
74540;SHT31;66042;51.090;-115.340;2024-02-23T13:38:59;0.01;52.16
74540;SHT31;66042;51.090;-115.340;2024-02-23T13:41:27;0.01;52.14
74540;SHT31;66042;51.090;-115.340;2024-02-23T13:43:54;0.01;52.10
74540;SHT31;66042;51.090;-115.340;2024-02-23T13:46:21;0.05;51.94
74540;SHT31;66042;51.090;-115.340;2024-02-23T13:48:49;0.09;51.99
74540;SHT31;66042;51.090;-115.340;2024-02-23T13:51:31;0.14;51.96
74540;SHT31;66042;51.090;-115.340;2024-02-23T13:53:59;0.14;51.98
74540;SHT31;66042;51.090;-115.340;2024-02-23T13:56:26;0.09;51.99
74540;SHT31;66042;51.090;-115.340;2024-02-23T13:58:53;0.05;52.02
74540;SHT31;66042;51.090;-115.340;2024-02-23T14:01:20;0.04;51.98
74540;SHT31;66042;51.090;-115.340;2024-02-23T14:03:47;0.04;52.26
74540;SHT31;66042;51.090;-115.340;2024-02-23T14:06:15;0.09;51.93
74540;SHT31;66042;51.090;-115.340;2024-02-23T14:08:42;0.13;51.73
74540;SHT31;66042;51.090;-115.340;2024-02-23T14:11:09;0.18;51.53
74540;SHT31;66042;51.090;-115.340;2024-02-23T14:13:36;0.21;51.34
74540;SHT31;66042;51.090;-115.340;2024-02-23T14:16:03;0.28;50.84
74540;SHT31;66042;51.090;-115.340;2024-02-23T14:18:31;0.40;50.51
74540;SHT31;66042;51.090;-115.340;2024-02-23T14:21:03;0.47;50.38
74540;SHT31;66042;51.090;-115.340;2024-02-23T14:23:30;0.48;50.60
74540;SHT31;66042;51.090;-115.340;2024-02-23T14:25:57;0.45;50.71
74540;SHT31;66042;51.090;-115.340;2024-02-23T14:28:24;0.42;50.65
74540;SHT31;66042;51.090;-115.340;2024-02-23T14:30:51;0.42;50.54
74540;SHT31;66042;51.090;-115.340;2024-02-23T14:33:19;0.44;50.55
74540;SHT31;66042;51.090;-115.340;2024-02-23T14:35:46;0.44;50.62
74540;SHT31;66042;51.090;-115.340;2024-02-23T14:38:15;0.41;50.73
74540;SHT31;66042;51.090;-115.340;2024-02-23T14:40:42;0.37;50.62
74540;SHT31;66042;51.090;-115.340;2024-02-23T14:43:10;0.32;50.59
74540;SHT31;66042;51.090;-115.340;2024-02-23T14:45:37;0.28;50.80
74540;SHT31;66042;51.090;-115.340;2024-02-23T14:48:03;0.28;50.63
74540;SHT31;66042;51.090;-115.340;2024-02-23T14:50:31;0.29;50.40
74540;SHT31;66042;51.090;-115.340;2024-02-23T14:52:58;0.33;50.23
74540;SHT31;66042;51.090;-115.340;2024-02-23T14:55:25;0.40;49.81
74540;SHT31;66042;51.090;-115.340;2024-02-23T14:57:52;0.52;49.43
74540;SHT31;66042;51.090;-115.340;2024-02-23T15:00:20;0.62;49.22
74540;SHT31;66042;51.090;-115.340;2024-02-23T15:02:47;0.67;49.38
74540;SHT31;66042;51.090;-115.340;2024-02-23T15:05:14;0.68;49.35
74540;SHT31;66042;51.090;-115.340;2024-02-23T15:07:42;0.70;49.30
74540;SHT31;66042;51.090;-115.340;2024-02-23T15:10:09;0.72;49.20
74540;SHT31;66042;51.090;-115.340;2024-02-23T15:12:36;0.73;49.08
74540;SHT31;66042;51.090;-115.340;2024-02-23T15:15:04;0.75;49.18